Piacabucu, Brazil
Current Conditions -  °F | °C
As of 10:00 AM on Monday 20 Oct 2014 (Local Time) from SBAR Reporting Station
Scattered Clouds Scattered Clouds  
Wind Chill: 82°   Ceiling: Unl
Heat Index: 86°   Visibility: 6mi
Dew Point: 70°   Wind: 14mph
Humidity: 66%   Direction: 80°E
Pressure: 29.94"   Gusts: NA
Location:  10.41°S, 36.43°W
Report Text: SBAR 201300Z 08012KT 9999 SCT017 28/21 Q1014
Loading
Personal Weather Stations






























Interactive Weather Map
Tropical Storm Tracking
New forecast layout! Learn more

10-Day Weather Forecast

Advertisements
Track Severe Weather on mobile